sensor_id;sensor_type;location;lat;lon;timestamp;P1;durP1;ratioP1;P2;durP2;ratioP2
54539;SDS011;40438;52.992;18.604;2023-05-07T00:00:55;27.17;;;12.88;;
54539;SDS011;40438;52.992;18.604;2023-05-07T00:03:23;32.15;;;14.38;;
54539;SDS011;40438;52.992;18.604;2023-05-07T00:05:48;26.02;;;12.30;;
54539;SDS011;40438;52.992;18.604;2023-05-07T00:08:14;27.25;;;12.93;;
54539;SDS011;40438;52.992;18.604;2023-05-07T00:10:40;29.30;;;14.02;;
54539;SDS011;40438;52.992;18.604;2023-05-07T00:13:06;25.80;;;13.05;;
54539;SDS011;40438;52.992;18.604;2023-05-07T00:15:32;27.10;;;13.15;;
54539;SDS011;40438;52.992;18.604;2023-05-07T00:17:57;31.77;;;13.40;;
54539;SDS011;40438;52.992;18.604;2023-05-07T00:20:25;27.85;;;13.88;;
54539;SDS011;40438;52.992;18.604;2023-05-07T00:22:51;35.47;;;13.02;;
54539;SDS011;40438;52.992;18.604;2023-05-07T00:25:16;29.23;;;12.38;;
54539;SDS011;40438;52.992;18.604;2023-05-07T00:27:42;29.25;;;13.23;;
54539;SDS011;40438;52.992;18.604;2023-05-07T00:30:08;25.85;;;12.15;;
54539;SDS011;40438;52.992;18.604;2023-05-07T00:32:35;29.23;;;12.10;;
54539;SDS011;40438;52.992;18.604;2023-05-07T00:35:00;25.35;;;12.40;;
54539;SDS011;40438;52.992;18.604;2023-05-07T00:37:28;24.00;;;12.93;;
54539;SDS011;40438;52.992;18.604;2023-05-07T00:39:53;28.85;;;13.55;;
54539;SDS011;40438;52.992;18.604;2023-05-07T00:42:19;37.70;;;14.75;;
54539;SDS011;40438;52.992;18.604;2023-05-07T00:44:45;32.70;;;14.27;;
54539;SDS011;40438;52.992;18.604;2023-05-07T00:47:11;33.47;;;15.43;;
54539;SDS011;40438;52.992;18.604;2023-05-07T00:49:38;30.77;;;15.18;;
54539;SDS011;40438;52.992;18.604;2023-05-07T00:52:05;31.70;;;14.30;;
54539;SDS011;40438;52.992;18.604;2023-05-07T00:54:33;26.52;;;13.82;;
54539;SDS011;40438;52.992;18.604;2023-05-07T00:56:59;27.77;;;13.93;;
54539;SDS011;40438;52.992;18.604;2023-05-07T00:59:27;32.22;;;14.15;;
54539;SDS011;40438;52.992;18.604;2023-05-07T01:01:53;29.67;;;14.15;;
54539;SDS011;40438;52.992;18.604;2023-05-07T01:04:19;30.02;;;13.15;;
54539;SDS011;40438;52.992;18.604;2023-05-07T01:06:44;31.95;;;14.82;;
54539;SDS011;40438;52.992;18.604;2023-05-07T01:09:10;27.05;;;12.93;;
54539;SDS011;40438;52.992;18.604;2023-05-07T01:11:38;23.80;;;13.20;;
54539;SDS011;40438;52.992;18.604;2023-05-07T01:14:05;27.30;;;12.85;;
54539;SDS011;40438;52.992;18.604;2023-05-07T01:16:31;27.10;;;12.30;;
54539;SDS011;40438;52.992;18.604;2023-05-07T01:18:58;28.83;;;11.98;;
54539;SDS011;40438;52.992;18.604;2023-05-07T01:21:24;24.52;;;12.40;;
54539;SDS011;40438;52.992;18.604;2023-05-07T01:23:52;24.30;;;11.68;;
54539;SDS011;40438;52.992;18.604;2023-05-07T01:26:20;30.58;;;12.25;;
54539;SDS011;40438;52.992;18.604;2023-05-07T01:28:46;40.60;;;13.32;;
54539;SDS011;40438;52.992;18.604;2023-05-07T01:31:11;49.33;;;13.73;;
54539;SDS011;40438;52.992;18.604;2023-05-07T01:33:38;36.67;;;12.65;;
54539;SDS011;40438;52.992;18.604;2023-05-07T01:36:06;29.13;;;11.95;;
54539;SDS011;40438;52.992;18.604;2023-05-07T01:38:34;31.25;;;10.98;;
54539;SDS011;40438;52.992;18.604;2023-05-07T01:41:02;33.08;;;13.05;;
54539;SDS011;40438;52.992;18.604;2023-05-07T01:43:29;40.85;;;12.90;;
54539;SDS011;40438;52.992;18.604;2023-05-07T01:45:55;37.83;;;13.45;;
54539;SDS011;40438;52.992;18.604;2023-05-07T01:48:22;34.75;;;12.07;;
54539;SDS011;40438;52.992;18.604;2023-05-07T01:50:49;26.35;;;10.38;;
54539;SDS011;40438;52.992;18.604;2023-05-07T01:53:16;19.63;;;10.00;;
54539;SDS011;40438;52.992;18.604;2023-05-07T01:55:42;19.30;;;10.23;;
54539;SDS011;40438;52.992;18.604;2023-05-07T01:58:10;20.48;;;9.93;;
54539;SDS011;40438;52.992;18.604;2023-05-07T02:00:35;22.20;;;10.63;;
54539;SDS011;40438;52.992;18.604;2023-05-07T02:03:01;21.13;;;10.23;;
54539;SDS011;40438;52.992;18.604;2023-05-07T02:05:44;18.33;;;8.97;;
54539;SDS011;40438;52.992;18.604;2023-05-07T02:08:27;23.55;;;10.40;;
54539;SDS011;40438;52.992;18.604;2023-05-07T02:10:52;24.40;;;10.07;;
54539;SDS011;40438;52.992;18.604;2023-05-07T02:13:20;19.98;;;9.80;;
54539;SDS011;40438;52.992;18.604;2023-05-07T02:15:45;17.55;;;8.85;;
54539;SDS011;40438;52.992;18.604;2023-05-07T02:18:11;24.17;;;9.68;;
54539;SDS011;40438;52.992;18.604;2023-05-07T02:20:37;18.35;;;8.65;;
54539;SDS011;40438;52.992;18.604;2023-05-07T02:23:03;23.60;;;9.38;;
54539;SDS011;40438;52.992;18.604;2023-05-07T02:25:29;19.08;;;8.85;;
54539;SDS011;40438;52.992;18.604;2023-05-07T02:27:55;21.58;;;9.90;;
54539;SDS011;40438;52.992;18.604;2023-05-07T02:30:28;18.08;;;8.00;;
54539;SDS011;40438;52.992;18.604;2023-05-07T02:32:56;16.08;;;8.57;;
54539;SDS011;40438;52.992;18.604;2023-05-07T02:35:23;20.08;;;8.60;;
54539;SDS011;40438;52.992;18.604;2023-05-07T02:37:49;17.58;;;8.02;;
54539;SDS011;40438;52.992;18.604;2023-05-07T02:40:15;22.25;;;9.75;;
54539;SDS011;40438;52.992;18.604;2023-05-07T02:42:41;22.63;;;9.13;;
54539;SDS011;40438;52.992;18.604;2023-05-07T02:45:07;18.35;;;9.70;;
54539;SDS011;40438;52.992;18.604;2023-05-07T02:47:36;21.52;;;9.65;;
54539;SDS011;40438;52.992;18.604;2023-05-07T02:50:03;20.17;;;9.90;;
54539;SDS011;40438;52.992;18.604;2023-05-07T02:52:29;19.85;;;9.70;;
54539;SDS011;40438;52.992;18.604;2023-05-07T02:54:55;25.30;;;10.40;;
54539;SDS011;40438;52.992;18.604;2023-05-07T02:57:21;21.52;;;10.40;;
54539;SDS011;40438;52.992;18.604;2023-05-07T02:59:47;19.77;;;9.95;;
54539;SDS011;40438;52.992;18.604;2023-05-07T03:02:13;20.95;;;9.98;;
54539;SDS011;40438;52.992;18.604;2023-05-07T03:04:41;20.60;;;9.73;;
54539;SDS011;40438;52.992;18.604;2023-05-07T03:07:06;15.05;;;8.20;;
54539;SDS011;40438;52.992;18.604;2023-05-07T03:09:32;20.10;;;8.82;;
54539;SDS011;40438;52.992;18.604;2023-05-07T03:11:58;18.92;;;8.27;;
54539;SDS011;40438;52.992;18.604;2023-05-07T03:14:24;16.40;;;8.95;;
54539;SDS011;40438;52.992;18.604;2023-05-07T03:16:50;19.35;;;8.70;;
54539;SDS011;40438;52.992;18.604;2023-05-07T03:19:15;17.33;;;8.32;;
54539;SDS011;40438;52.992;18.604;2023-05-07T03:21:43;19.75;;;8.48;;
54539;SDS011;40438;52.992;18.604;2023-05-07T03:24:08;16.27;;;8.27;;
54539;SDS011;40438;52.992;18.604;2023-05-07T03:26:34;23.08;;;8.77;;
54539;SDS011;40438;52.992;18.604;2023-05-07T03:29:00;17.83;;;8.80;;
54539;SDS011;40438;52.992;18.604;2023-05-07T03:31:26;21.30;;;7.70;;
54539;SDS011;40438;52.992;18.604;2023-05-07T03:33:52;22.33;;;9.82;;
54539;SDS011;40438;52.992;18.604;2023-05-07T03:36:19;32.80;;;11.85;;
54539;SDS011;40438;52.992;18.604;2023-05-07T03:38:46;32.25;;;12.20;;
54539;SDS011;40438;52.992;18.604;2023-05-07T03:41:16;32.95;;;11.52;;
54539;SDS011;40438;52.992;18.604;2023-05-07T03:43:43;26.85;;;11.02;;
54539;SDS011;40438;52.992;18.604;2023-05-07T03:46:11;19.67;;;9.02;;
54539;SDS011;40438;52.992;18.604;2023-05-07T03:48:36;22.58;;;10.25;;
54539;SDS011;40438;52.992;18.604;2023-05-07T03:51:02;17.27;;;8.38;;
54539;SDS011;40438;52.992;18.604;2023-05-07T03:53:31;17.33;;;8.88;;
54539;SDS011;40438;52.992;18.604;2023-05-07T03:55:59;20.23;;;9.02;;
54539;SDS011;40438;52.992;18.604;2023-05-07T03:58:24;14.98;;;7.57;;
54539;SDS011;40438;52.992;18.604;2023-05-07T04:00:52;15.75;;;8.63;;
54539;SDS011;40438;52.992;18.604;2023-05-07T04:03:25;17.00;;;8.32;;
54539;SDS011;40438;52.992;18.604;2023-05-07T04:05:52;16.40;;;8.43;;
54539;SDS011;40438;52.992;18.604;2023-05-07T04:08:18;14.05;;;7.68;;
54539;SDS011;40438;52.992;18.604;2023-05-07T04:10:47;21.83;;;8.68;;
54539;SDS011;40438;52.992;18.604;2023-05-07T04:13:14;17.38;;;7.55;;
54539;SDS011;40438;52.992;18.604;2023-05-07T04:15:41;15.05;;;7.50;;
54539;SDS011;40438;52.992;18.604;2023-05-07T04:18:09;18.27;;;8.77;;
54539;SDS011;40438;52.992;18.604;2023-05-07T04:20:36;18.33;;;7.80;;
54539;SDS011;40438;52.992;18.604;2023-05-07T04:23:04;14.80;;;7.10;;
54539;SDS011;40438;52.992;18.604;2023-05-07T04:25:31;14.90;;;7.55;;
54539;SDS011;40438;52.992;18.604;2023-05-07T04:28:04;16.38;;;7.68;;
54539;SDS011;40438;52.992;18.604;2023-05-07T04:30:32;20.17;;;8.35;;
54539;SDS011;40438;52.992;18.604;2023-05-07T04:32:58;18.52;;;8.93;;
54539;SDS011;40438;52.992;18.604;2023-05-07T04:35:27;22.38;;;10.20;;
54539;SDS011;40438;52.992;18.604;2023-05-07T04:37:53;20.83;;;10.23;;
54539;SDS011;40438;52.992;18.604;2023-05-07T04:40:19;21.70;;;9.60;;
54539;SDS011;40438;52.992;18.604;2023-05-07T04:42:45;20.23;;;9.55;;
54539;SDS011;40438;52.992;18.604;2023-05-07T04:45:11;20.00;;;10.25;;
54539;SDS011;40438;52.992;18.604;2023-05-07T04:47:40;22.15;;;9.57;;
54539;SDS011;40438;52.992;18.604;2023-05-07T04:50:06;21.70;;;10.55;;
54539;SDS011;40438;52.992;18.604;2023-05-07T04:52:32;21.42;;;11.43;;
54539;SDS011;40438;52.992;18.604;2023-05-07T04:54:59;25.92;;;11.88;;
54539;SDS011;40438;52.992;18.604;2023-05-07T04:57:29;29.70;;;12.77;;
54539;SDS011;40438;52.992;18.604;2023-05-07T04:59:55;23.08;;;12.43;;
54539;SDS011;40438;52.992;18.604;2023-05-07T05:02:21;29.73;;;11.68;;
54539;SDS011;40438;52.992;18.604;2023-05-07T05:04:48;19.40;;;10.30;;
54539;SDS011;40438;52.992;18.604;2023-05-07T05:07:14;24.73;;;10.93;;
54539;SDS011;40438;52.992;18.604;2023-05-07T05:09:40;22.42;;;11.18;;
54539;SDS011;40438;52.992;18.604;2023-05-07T05:12:07;24.13;;;10.77;;
54539;SDS011;40438;52.992;18.604;2023-05-07T05:14:34;22.50;;;10.20;;
54539;SDS011;40438;52.992;18.604;2023-05-07T05:17:00;19.85;;;8.70;;
54539;SDS011;40438;52.992;18.604;2023-05-07T05:19:26;21.55;;;9.68;;
54539;SDS011;40438;52.992;18.604;2023-05-07T05:21:53;21.17;;;9.48;;
54539;SDS011;40438;52.992;18.604;2023-05-07T05:24:19;19.33;;;8.23;;
54539;SDS011;40438;52.992;18.604;2023-05-07T05:26:45;20.25;;;8.02;;
54539;SDS011;40438;52.992;18.604;2023-05-07T05:29:11;15.63;;;7.55;;
54539;SDS011;40438;52.992;18.604;2023-05-07T05:31:40;21.05;;;8.38;;
54539;SDS011;40438;52.992;18.604;2023-05-07T05:34:06;16.80;;;8.43;;
54539;SDS011;40438;52.992;18.604;2023-05-07T05:36:32;16.30;;;8.05;;
54539;SDS011;40438;52.992;18.604;2023-05-07T05:38:59;18.73;;;8.25;;
54539;SDS011;40438;52.992;18.604;2023-05-07T05:41:25;17.50;;;8.38;;
54539;SDS011;40438;52.992;18.604;2023-05-07T05:43:51;16.80;;;6.90;;
54539;SDS011;40438;52.992;18.604;2023-05-07T05:46:18;19.52;;;8.38;;
54539;SDS011;40438;52.992;18.604;2023-05-07T05:48:45;14.38;;;6.65;;
54539;SDS011;40438;52.992;18.604;2023-05-07T05:51:11;15.00;;;6.97;;
54539;SDS011;40438;52.992;18.604;2023-05-07T05:53:37;10.40;;;5.93;;
54539;SDS011;40438;52.992;18.604;2023-05-07T05:56:04;10.95;;;5.55;;
54539;SDS011;40438;52.992;18.604;2023-05-07T05:58:32;15.30;;;6.78;;
54539;SDS011;40438;52.992;18.604;2023-05-07T06:01:01;10.10;;;5.85;;
54539;SDS011;40438;52.992;18.604;2023-05-07T06:03:27;16.95;;;6.13;;
54539;SDS011;40438;52.992;18.604;2023-05-07T06:05:54;12.98;;;5.22;;
54539;SDS011;40438;52.992;18.604;2023-05-07T06:08:21;10.88;;;5.68;;
54539;SDS011;40438;52.992;18.604;2023-05-07T06:10:47;11.75;;;5.63;;
54539;SDS011;40438;52.992;18.604;2023-05-07T06:13:15;13.68;;;5.97;;
54539;SDS011;40438;52.992;18.604;2023-05-07T06:15:41;12.15;;;6.10;;
54539;SDS011;40438;52.992;18.604;2023-05-07T06:18:09;13.25;;;6.28;;
54539;SDS011;40438;52.992;18.604;2023-05-07T06:20:35;14.50;;;6.00;;
54539;SDS011;40438;52.992;18.604;2023-05-07T06:23:04;14.20;;;6.43;;
54539;SDS011;40438;52.992;18.604;2023-05-07T06:25:32;11.18;;;5.97;;
54539;SDS011;40438;52.992;18.604;2023-05-07T06:27:57;12.70;;;5.50;;
54539;SDS011;40438;52.992;18.604;2023-05-07T06:30:26;20.17;;;6.30;;
54539;SDS011;40438;52.992;18.604;2023-05-07T06:32:52;12.60;;;5.88;;
54539;SDS011;40438;52.992;18.604;2023-05-07T06:35:18;13.73;;;6.25;;
54539;SDS011;40438;52.992;18.604;2023-05-07T06:37:44;15.85;;;6.68;;
54539;SDS011;40438;52.992;18.604;2023-05-07T06:40:16;14.70;;;7.00;;
54539;SDS011;40438;52.992;18.604;2023-05-07T06:42:43;11.50;;;5.88;;
54539;SDS011;40438;52.992;18.604;2023-05-07T06:45:35;12.55;;;6.50;;
54539;SDS011;40438;52.992;18.604;2023-05-07T06:48:01;18.90;;;6.20;;
54539;SDS011;40438;52.992;18.604;2023-05-07T06:50:31;12.20;;;5.88;;
54539;SDS011;40438;52.992;18.604;2023-05-07T06:52:57;13.13;;;6.10;;
54539;SDS011;40438;52.992;18.604;2023-05-07T06:55:23;12.93;;;5.75;;
54539;SDS011;40438;52.992;18.604;2023-05-07T06:57:49;12.98;;;5.60;;
54539;SDS011;40438;52.992;18.604;2023-05-07T07:00:16;11.10;;;5.88;;
54539;SDS011;40438;52.992;18.604;2023-05-07T07:02:50;13.25;;;5.85;;
54539;SDS011;40438;52.992;18.604;2023-05-07T07:05:19;8.73;;;4.07;;
54539;SDS011;40438;52.992;18.604;2023-05-07T07:07:45;9.52;;;4.75;;
54539;SDS011;40438;52.992;18.604;2023-05-07T07:10:11;10.02;;;4.60;;
54539;SDS011;40438;52.992;18.604;2023-05-07T07:12:37;8.60;;;4.40;;
54539;SDS011;40438;52.992;18.604;2023-05-07T07:15:03;9.70;;;4.90;;
54539;SDS011;40438;52.992;18.604;2023-05-07T07:17:30;13.15;;;5.70;;
54539;SDS011;40438;52.992;18.604;2023-05-07T07:19:57;12.23;;;4.70;;
54539;SDS011;40438;52.992;18.604;2023-05-07T07:22:23;10.10;;;4.40;;
54539;SDS011;40438;52.992;18.604;2023-05-07T07:24:49;7.45;;;4.22;;
54539;SDS011;40438;52.992;18.604;2023-05-07T07:27:16;7.10;;;3.90;;
54539;SDS011;40438;52.992;18.604;2023-05-07T07:29:42;9.48;;;3.83;;
54539;SDS011;40438;52.992;18.604;2023-05-07T07:32:08;7.32;;;3.72;;
54539;SDS011;40438;52.992;18.604;2023-05-07T07:34:34;7.63;;;3.65;;
54539;SDS011;40438;52.992;18.604;2023-05-07T07:37:02;6.72;;;3.50;;
54539;SDS011;40438;52.992;18.604;2023-05-07T07:39:28;10.90;;;4.18;;
54539;SDS011;40438;52.992;18.604;2023-05-07T07:41:55;7.60;;;4.00;;
54539;SDS011;40438;52.992;18.604;2023-05-07T07:44:21;9.32;;;4.63;;
54539;SDS011;40438;52.992;18.604;2023-05-07T07:46:52;8.45;;;3.55;;
54539;SDS011;40438;52.992;18.604;2023-05-07T07:49:19;7.35;;;3.58;;
54539;SDS011;40438;52.992;18.604;2023-05-07T07:51:45;7.53;;;3.85;;
54539;SDS011;40438;52.992;18.604;2023-05-07T07:54:13;10.02;;;4.75;;
54539;SDS011;40438;52.992;18.604;2023-05-07T07:56:40;7.82;;;3.83;;
54539;SDS011;40438;52.992;18.604;2023-05-07T07:59:08;7.55;;;3.75;;
54539;SDS011;40438;52.992;18.604;2023-05-07T08:01:37;11.02;;;3.30;;
54539;SDS011;40438;52.992;18.604;2023-05-07T08:04:03;6.40;;;3.00;;
54539;SDS011;40438;52.992;18.604;2023-05-07T08:06:31;8.60;;;3.40;;
54539;SDS011;40438;52.992;18.604;2023-05-07T08:08:57;5.90;;;3.05;;
54539;SDS011;40438;52.992;18.604;2023-05-07T08:11:24;6.15;;;3.33;;
54539;SDS011;40438;52.992;18.604;2023-05-07T08:13:51;9.57;;;3.33;;
54539;SDS011;40438;52.992;18.604;2023-05-07T08:16:18;5.45;;;3.08;;
54539;SDS011;40438;52.992;18.604;2023-05-07T08:18:44;16.13;;;3.45;;
54539;SDS011;40438;52.992;18.604;2023-05-07T08:21:10;5.28;;;2.97;;
54539;SDS011;40438;52.992;18.604;2023-05-07T08:23:36;7.05;;;3.22;;
54539;SDS011;40438;52.992;18.604;2023-05-07T08:26:03;5.10;;;3.17;;
54539;SDS011;40438;52.992;18.604;2023-05-07T08:28:30;4.47;;;3.03;;
54539;SDS011;40438;52.992;18.604;2023-05-07T08:30:56;4.88;;;2.60;;
54539;SDS011;40438;52.992;18.604;2023-05-07T08:33:23;5.30;;;3.30;;
54539;SDS011;40438;52.992;18.604;2023-05-07T08:35:48;5.22;;;2.83;;
54539;SDS011;40438;52.992;18.604;2023-05-07T08:38:14;9.30;;;3.05;;
54539;SDS011;40438;52.992;18.604;2023-05-07T08:40:41;4.18;;;2.45;;
54539;SDS011;40438;52.992;18.604;2023-05-07T08:43:12;4.70;;;2.30;;
54539;SDS011;40438;52.992;18.604;2023-05-07T08:45:40;6.60;;;2.38;;
54539;SDS011;40438;52.992;18.604;2023-05-07T08:48:09;4.68;;;1.98;;
54539;SDS011;40438;52.992;18.604;2023-05-07T08:50:39;7.45;;;2.55;;
54539;SDS011;40438;52.992;18.604;2023-05-07T08:53:05;3.80;;;2.17;;
54539;SDS011;40438;52.992;18.604;2023-05-07T08:55:31;4.63;;;1.88;;
54539;SDS011;40438;52.992;18.604;2023-05-07T08:57:57;3.95;;;2.40;;
54539;SDS011;40438;52.992;18.604;2023-05-07T09:00:23;4.43;;;2.15;;
54539;SDS011;40438;52.992;18.604;2023-05-07T09:02:53;6.07;;;2.55;;
54539;SDS011;40438;52.992;18.604;2023-05-07T09:05:19;4.40;;;2.15;;
54539;SDS011;40438;52.992;18.604;2023-05-07T09:07:45;9.52;;;2.30;;
54539;SDS011;40438;52.992;18.604;2023-05-07T09:10:12;4.40;;;2.40;;
54539;SDS011;40438;52.992;18.604;2023-05-07T09:12:40;5.47;;;2.90;;
54539;SDS011;40438;52.992;18.604;2023-05-07T09:15:08;7.47;;;2.50;;
54539;SDS011;40438;52.992;18.604;2023-05-07T09:17:35;2.83;;;1.80;;
54539;SDS011;40438;52.992;18.604;2023-05-07T09:20:05;4.70;;;2.50;;
54539;SDS011;40438;52.992;18.604;2023-05-07T09:22:32;4.55;;;1.92;;
54539;SDS011;40438;52.992;18.604;2023-05-07T09:25:03;2.65;;;1.88;;
54539;SDS011;40438;52.992;18.604;2023-05-07T09:27:30;3.35;;;2.10;;
54539;SDS011;40438;52.992;18.604;2023-05-07T09:29:57;3.95;;;2.00;;
54539;SDS011;40438;52.992;18.604;2023-05-07T09:32:24;4.97;;;2.08;;
54539;SDS011;40438;52.992;18.604;2023-05-07T09:34:50;3.08;;;2.22;;
54539;SDS011;40438;52.992;18.604;2023-05-07T09:37:21;6.57;;;2.67;;
54539;SDS011;40438;52.992;18.604;2023-05-07T09:39:48;4.57;;;2.80;;
54539;SDS011;40438;52.992;18.604;2023-05-07T09:42:22;4.60;;;3.17;;
54539;SDS011;40438;52.992;18.604;2023-05-07T09:44:49;3.17;;;2.53;;
54539;SDS011;40438;52.992;18.604;2023-05-07T09:47:19;4.25;;;2.10;;
54539;SDS011;40438;52.992;18.604;2023-05-07T09:49:49;4.53;;;2.40;;
54539;SDS011;40438;52.992;18.604;2023-05-07T09:52:19;4.28;;;2.50;;
54539;SDS011;40438;52.992;18.604;2023-05-07T09:54:52;4.22;;;2.38;;
54539;SDS011;40438;52.992;18.604;2023-05-07T09:57:21;6.57;;;2.60;;
54539;SDS011;40438;52.992;18.604;2023-05-07T09:59:52;11.52;;;3.25;;
54539;SDS011;40438;52.992;18.604;2023-05-07T10:02:20;6.32;;;2.70;;
54539;SDS011;40438;52.992;18.604;2023-05-07T10:04:51;4.38;;;2.38;;
54539;SDS011;40438;52.992;18.604;2023-05-07T10:07:23;4.93;;;2.25;;
54539;SDS011;40438;52.992;18.604;2023-05-07T10:09:53;4.55;;;2.70;;
54539;SDS011;40438;52.992;18.604;2023-05-07T10:12:27;4.03;;;2.10;;
54539;SDS011;40438;52.992;18.604;2023-05-07T10:14:55;3.53;;;2.33;;
54539;SDS011;40438;52.992;18.604;2023-05-07T10:17:23;4.25;;;2.58;;
54539;SDS011;40438;52.992;18.604;2023-05-07T10:19:49;2.67;;;2.00;;
54539;SDS011;40438;52.992;18.604;2023-05-07T10:22:15;9.25;;;2.13;;
54539;SDS011;40438;52.992;18.604;2023-05-07T10:24:46;5.88;;;2.03;;
54539;SDS011;40438;52.992;18.604;2023-05-07T10:27:16;2.58;;;2.10;;
54539;SDS011;40438;52.992;18.604;2023-05-07T10:29:50;2.78;;;2.33;;
54539;SDS011;40438;52.992;18.604;2023-05-07T10:32:30;3.83;;;1.85;;
54539;SDS011;40438;52.992;18.604;2023-05-07T10:35:03;2.92;;;2.03;;
54539;SDS011;40438;52.992;18.604;2023-05-07T10:37:34;2.92;;;1.95;;
54539;SDS011;40438;52.992;18.604;2023-05-07T10:40:02;3.15;;;2.33;;
54539;SDS011;40438;52.992;18.604;2023-05-07T10:42:30;4.25;;;2.20;;
54539;SDS011;40438;52.992;18.604;2023-05-07T10:44:56;2.40;;;1.70;;
54539;SDS011;40438;52.992;18.604;2023-05-07T10:47:27;5.00;;;2.22;;
54539;SDS011;40438;52.992;18.604;2023-05-07T11:02:00;3.13;;;1.63;;
54539;SDS011;40438;52.992;18.604;2023-05-07T11:04:42;4.15;;;2.17;;
54539;SDS011;40438;52.992;18.604;2023-05-07T11:07:30;4.88;;;2.20;;
54539;SDS011;40438;52.992;18.604;2023-05-07T11:10:05;5.10;;;2.45;;
54539;SDS011;40438;52.992;18.604;2023-05-07T11:12:51;3.10;;;2.25;;
54539;SDS011;40438;52.992;18.604;2023-05-07T11:15:36;3.87;;;2.20;;
54539;SDS011;40438;52.992;18.604;2023-05-07T11:18:10;3.28;;;1.95;;
54539;SDS011;40438;52.992;18.604;2023-05-07T11:20:54;2.65;;;1.60;;
54539;SDS011;40438;52.992;18.604;2023-05-07T11:27:01;3.25;;;2.00;;
54539;SDS011;40438;52.992;18.604;2023-05-07T11:29:30;3.55;;;2.25;;
54539;SDS011;40438;52.992;18.604;2023-05-07T11:32:02;4.25;;;2.10;;
54539;SDS011;40438;52.992;18.604;2023-05-07T11:34:34;3.87;;;1.97;;
54539;SDS011;40438;52.992;18.604;2023-05-07T11:37:01;3.40;;;1.92;;
54539;SDS011;40438;52.992;18.604;2023-05-07T11:39:39;2.35;;;1.77;;
54539;SDS011;40438;52.992;18.604;2023-05-07T11:42:05;2.50;;;1.90;;
54539;SDS011;40438;52.992;18.604;2023-05-07T11:44:44;4.30;;;1.88;;
54539;SDS011;40438;52.992;18.604;2023-05-07T11:47:10;2.90;;;1.90;;
54539;SDS011;40438;52.992;18.604;2023-05-07T11:49:36;5.45;;;1.95;;
54539;SDS011;40438;52.992;18.604;2023-05-07T11:52:02;2.47;;;1.60;;
54539;SDS011;40438;52.992;18.604;2023-05-07T11:54:34;2.58;;;1.50;;
54539;SDS011;40438;52.992;18.604;2023-05-07T11:57:00;2.65;;;1.58;;
54539;SDS011;40438;52.992;18.604;2023-05-07T11:59:26;2.58;;;1.58;;
54539;SDS011;40438;52.992;18.604;2023-05-07T12:01:55;2.25;;;1.48;;
54539;SDS011;40438;52.992;18.604;2023-05-07T12:04:22;1.88;;;1.42;;
54539;SDS011;40438;52.992;18.604;2023-05-07T12:06:48;3.45;;;1.60;;
54539;SDS011;40438;52.992;18.604;2023-05-07T12:09:13;2.13;;;1.60;;
54539;SDS011;40438;52.992;18.604;2023-05-07T12:11:39;4.40;;;1.70;;
54539;SDS011;40438;52.992;18.604;2023-05-07T12:14:05;4.05;;;1.58;;
54539;SDS011;40438;52.992;18.604;2023-05-07T12:16:31;4.47;;;2.15;;
54539;SDS011;40438;52.992;18.604;2023-05-07T12:18:58;3.88;;;2.10;;
54539;SDS011;40438;52.992;18.604;2023-05-07T12:21:25;2.58;;;1.60;;
54539;SDS011;40438;52.992;18.604;2023-05-07T12:23:51;3.97;;;1.67;;
54539;SDS011;40438;52.992;18.604;2023-05-07T12:26:16;2.63;;;1.60;;
54539;SDS011;40438;52.992;18.604;2023-05-07T12:28:44;1.88;;;1.45;;
54539;SDS011;40438;52.992;18.604;2023-05-07T12:31:11;2.85;;;1.52;;
54539;SDS011;40438;52.992;18.604;2023-05-07T12:33:39;2.45;;;1.52;;
54539;SDS011;40438;52.992;18.604;2023-05-07T12:36:07;3.10;;;1.60;;
54539;SDS011;40438;52.992;18.604;2023-05-07T12:38:36;2.28;;;1.48;;
54539;SDS011;40438;52.992;18.604;2023-05-07T12:41:03;3.85;;;1.60;;
54539;SDS011;40438;52.992;18.604;2023-05-07T12:43:29;4.53;;;1.60;;
54539;SDS011;40438;52.992;18.604;2023-05-07T12:45:56;2.10;;;1.40;;
54539;SDS011;40438;52.992;18.604;2023-05-07T12:48:25;2.33;;;1.52;;
54539;SDS011;40438;52.992;18.604;2023-05-07T12:50:52;3.25;;;1.38;;
54539;SDS011;40438;52.992;18.604;2023-05-07T12:53:21;2.30;;;1.60;;
54539;SDS011;40438;52.992;18.604;2023-05-07T12:55:48;4.88;;;1.67;;
54539;SDS011;40438;52.992;18.604;2023-05-07T12:58:15;1.30;;;1.20;;
54539;SDS011;40438;52.992;18.604;2023-05-07T13:00:42;3.85;;;2.45;;
54539;SDS011;40438;52.992;18.604;2023-05-07T13:03:08;2.83;;;1.80;;
54539;SDS011;40438;52.992;18.604;2023-05-07T13:05:34;2.60;;;1.50;;
54539;SDS011;40438;52.992;18.604;2023-05-07T13:07:59;5.00;;;1.92;;
54539;SDS011;40438;52.992;18.604;2023-05-07T13:10:27;3.30;;;2.05;;
54539;SDS011;40438;52.992;18.604;2023-05-07T13:12:52;2.92;;;1.92;;
54539;SDS011;40438;52.992;18.604;2023-05-07T13:15:18;2.75;;;1.42;;
54539;SDS011;40438;52.992;18.604;2023-05-07T13:17:45;3.08;;;2.03;;
54539;SDS011;40438;52.992;18.604;2023-05-07T13:20:11;6.28;;;2.10;;
54539;SDS011;40438;52.992;18.604;2023-05-07T13:22:37;6.07;;;3.55;;
54539;SDS011;40438;52.992;18.604;2023-05-07T13:25:03;2.97;;;1.85;;
54539;SDS011;40438;52.992;18.604;2023-05-07T13:27:30;3.13;;;2.13;;
54539;SDS011;40438;52.992;18.604;2023-05-07T13:29:56;4.60;;;2.40;;
54539;SDS011;40438;52.992;18.604;2023-05-07T13:32:22;18.08;;;8.80;;
54539;SDS011;40438;52.992;18.604;2023-05-07T13:34:48;6.57;;;3.80;;
54539;SDS011;40438;52.992;18.604;2023-05-07T13:37:14;4.50;;;2.10;;
54539;SDS011;40438;52.992;18.604;2023-05-07T13:39:40;2.42;;;1.90;;
54539;SDS011;40438;52.992;18.604;2023-05-07T13:42:05;4.03;;;1.95;;
54539;SDS011;40438;52.992;18.604;2023-05-07T13:44:33;2.22;;;1.67;;
54539;SDS011;40438;52.992;18.604;2023-05-07T13:46:59;2.35;;;2.00;;
54539;SDS011;40438;52.992;18.604;2023-05-07T13:49:24;3.33;;;2.15;;
54539;SDS011;40438;52.992;18.604;2023-05-07T13:51:50;3.08;;;1.70;;
54539;SDS011;40438;52.992;18.604;2023-05-07T13:54:16;5.03;;;3.20;;
54539;SDS011;40438;52.992;18.604;2023-05-07T13:56:42;8.52;;;4.50;;
54539;SDS011;40438;52.992;18.604;2023-05-07T13:59:08;13.40;;;3.00;;
54539;SDS011;40438;52.992;18.604;2023-05-07T14:01:35;3.13;;;1.88;;
54539;SDS011;40438;52.992;18.604;2023-05-07T14:04:01;6.00;;;2.63;;
54539;SDS011;40438;52.992;18.604;2023-05-07T14:06:26;2.70;;;2.10;;
54539;SDS011;40438;52.992;18.604;2023-05-07T14:08:52;5.15;;;2.35;;
54539;SDS011;40438;52.992;18.604;2023-05-07T14:11:18;4.78;;;1.60;;
54539;SDS011;40438;52.992;18.604;2023-05-07T14:13:44;2.78;;;2.13;;
54539;SDS011;40438;52.992;18.604;2023-05-07T14:16:10;3.22;;;1.88;;
54539;SDS011;40438;52.992;18.604;2023-05-07T14:18:37;3.33;;;2.28;;
54539;SDS011;40438;52.992;18.604;2023-05-07T14:21:03;3.20;;;2.00;;
54539;SDS011;40438;52.992;18.604;2023-05-07T14:23:29;4.85;;;2.45;;
54539;SDS011;40438;52.992;18.604;2023-05-07T14:25:55;3.40;;;2.95;;
54539;SDS011;40438;52.992;18.604;2023-05-07T14:28:21;4.05;;;2.50;;
54539;SDS011;40438;52.992;18.604;2023-05-07T14:30:47;4.40;;;3.05;;
54539;SDS011;40438;52.992;18.604;2023-05-07T14:33:12;5.60;;;2.47;;
54539;SDS011;40438;52.992;18.604;2023-05-07T14:35:40;4.68;;;2.70;;
54539;SDS011;40438;52.992;18.604;2023-05-07T14:38:05;6.40;;;4.53;;
54539;SDS011;40438;52.992;18.604;2023-05-07T14:40:31;7.05;;;2.95;;
54539;SDS011;40438;52.992;18.604;2023-05-07T14:42:57;4.10;;;2.38;;